Time;durP1;ratioP1;P1;durP2;ratioP2;P2;SDS_P1;SDS_P2;PMS_P1;PMS_P2;Temp;Humidity;BMP_temperature;BMP_pressure;BME280_temperature;BME280_humidity;BME280_pressure;Samples;Min_cycle;Max_cycle;Signal;HPM_P1;HPM_P2
2021/04/22 00:01:27;;;;;;;13.30;8.03;;;8.50;99.90;;;;;;5053988;28;20441;-85
2021/04/22 00:03:53;;;;;;;9.47;7.13;;;8.50;99.90;;;;;;5054497;28;20457;-85
2021/04/22 00:06:20;;;;;;;10.37;7.90;;;8.50;99.90;;;;;;5053946;28;20470;-85
2021/04/22 00:08:46;;;;;;;10.13;7.50;;;8.50;99.90;;;;;;5054061;28;20445;-85
2021/04/22 00:11:13;;;;;;;12.40;8.23;;;8.60;99.90;;;;;;5053914;28;20450;-86
2021/04/22 00:13:40;;;;;;;9.13;8.23;;;8.60;99.90;;;;;;5054006;28;20446;-85
2021/04/22 00:16:06;;;;;;;11.97;8.70;;;8.70;99.90;;;;;;5053797;28;20826;-86
2021/04/22 00:18:33;;;;;;;10.07;7.87;;;8.70;99.90;;;;;;5053816;28;20485;-85
2021/04/22 00:20:59;;;;;;;9.40;7.93;;;8.80;99.90;;;;;;5053787;28;20446;-86
2021/04/22 00:23:26;;;;;;;10.93;8.23;;;8.80;99.90;;;;;;5053745;28;20484;-85
2021/04/22 00:25:52;;;;;;;9.80;8.80;;;8.80;99.90;;;;;;5053571;28;20450;-85
2021/04/22 00:28:19;;;;;;;10.40;8.13;;;8.80;99.90;;;;;;5053184;28;20480;-86
2021/04/22 00:30:46;;;;;;;10.00;7.70;;;8.80;99.90;;;;;;5053645;28;20454;-86
2021/04/22 00:33:15;;;;;;;10.07;8.07;;;8.80;99.90;;;;;;5053609;28;20442;-86
2021/04/22 00:35:42;;;;;;;9.07;7.37;;;8.80;99.90;;;;;;5053429;28;20480;-85
2021/04/22 00:38:09;;;;;;;11.77;8.57;;;8.70;99.90;;;;;;5053348;28;20508;-85
2021/04/22 00:40:36;;;;;;;9.80;8.40;;;8.60;99.90;;;;;;5053207;28;20434;-86
2021/04/22 00:43:05;;;;;;;10.40;9.30;;;8.60;99.90;;;;;;5053493;28;20446;-85
2021/04/22 00:45:32;;;;;;;11.37;8.87;;;8.60;99.90;;;;;;5053437;28;20813;-86
2021/04/22 00:47:59;;;;;;;11.93;9.40;;;8.60;99.90;;;;;;5053176;28;20449;-86
2021/04/22 00:50:28;;;;;;;13.67;9.93;;;8.60;99.90;;;;;;5053338;28;20454;-86
2021/04/22 00:52:56;;;;;;;16.97;9.93;;;8.60;99.90;;;;;;5053340;28;20520;-86
2021/04/22 00:55:22;;;;;;;11.40;9.47;;;8.70;99.90;;;;;;5053246;28;20840;-86
2021/04/22 00:57:49;;;;;;;14.63;10.00;;;8.70;99.90;;;;;;5052852;28;20484;-81
2021/04/22 01:00:18;;;;;;;15.73;9.67;;;8.70;99.90;;;;;;5053975;28;20507;-83
2021/04/22 01:02:46;;;;;;;16.03;10.97;;;8.70;99.90;;;;;;5053066;28;20806;-83
2021/04/22 01:05:17;;;;;;;15.10;9.47;;;8.80;99.90;;;;;;5053367;28;20469;-80
2021/04/22 01:07:44;;;;;;;13.63;10.10;;;8.80;99.90;;;;;;5055170;28;20433;-80
2021/04/22 01:10:13;;;;;;;14.50;10.50;;;8.80;99.90;;;;;;5057156;28;20503;-80
2021/04/22 01:12:39;;;;;;;16.63;11.33;;;8.80;99.90;;;;;;5057119;28;20459;-80
2021/04/22 01:15:07;;;;;;;15.73;10.77;;;8.90;99.90;;;;;;5057407;28;20480;-85
2021/04/22 01:17:34;;;;;;;12.63;10.03;;;8.90;99.90;;;;;;5057149;28;20964;-86
2021/04/22 01:20:02;;;;;;;13.17;10.37;;;9.00;99.90;;;;;;5057099;28;20953;-85
2021/04/22 01:22:29;;;;;;;13.03;9.43;;;9.00;99.90;;;;;;5057041;28;20434;-85
2021/04/22 01:24:55;;;;;;;16.23;10.80;;;9.00;99.90;;;;;;5056679;28;20992;-86
2021/04/22 01:27:21;;;;;;;14.33;11.47;;;9.10;99.90;;;;;;5056474;28;20484;-85
2021/04/22 01:29:47;;;;;;;17.60;11.67;;;9.10;99.90;;;;;;5056962;28;20436;-86
2021/04/22 01:32:14;;;;;;;14.70;12.07;;;9.10;99.90;;;;;;5056815;28;20449;-86
2021/04/22 01:34:40;;;;;;;18.57;12.73;;;9.10;99.90;;;;;;5056816;28;20449;-86
2021/04/22 01:37:07;;;;;;;16.30;12.40;;;9.20;99.90;;;;;;5056704;28;20581;-85
2021/04/22 01:39:35;;;;;;;17.33;12.33;;;9.20;99.90;;;;;;5056759;28;20820;-86
2021/04/22 01:42:01;;;;;;;18.10;12.50;;;9.30;99.90;;;;;;5056337;28;20967;-85
2021/04/22 01:44:28;;;;;;;17.53;12.40;;;9.30;99.90;;;;;;5056391;28;20445;-86
2021/04/22 01:46:54;;;;;;;17.80;12.50;;;9.30;99.90;;;;;;5056274;28;21095;-85
2021/04/22 01:49:20;;;;;;;19.30;12.57;;;9.30;99.90;;;;;;5056755;28;20441;-86
2021/04/22 01:51:46;;;;;;;21.73;14.27;;;9.40;99.90;;;;;;5056263;28;20460;-85
2021/04/22 01:54:13;;;;;;;18.60;13.63;;;9.40;99.90;;;;;;5056481;28;20450;-86
2021/04/22 01:56:40;;;;;;;17.70;13.37;;;9.40;99.90;;;;;;5056405;28;20466;-85
2021/04/22 01:59:06;;;;;;;17.73;12.73;;;9.40;99.90;;;;;;5056309;28;20844;-85
2021/04/22 02:01:32;;;;;;;19.30;12.90;;;9.50;99.90;;;;;;5056401;28;20458;-86
2021/04/22 02:03:59;;;;;;;21.70;14.30;;;9.50;99.90;;;;;;5056334;28;20455;-86
2021/04/22 02:06:25;;;;;;;18.90;12.83;;;9.50;99.90;;;;;;5056005;28;20504;-86
2021/04/22 02:08:51;;;;;;;17.53;12.93;;;9.60;99.90;;;;;;5056270;28;20438;-86
2021/04/22 02:11:17;;;;;;;20.07;13.70;;;9.60;99.90;;;;;;5055930;28;20430;-86
2021/04/22 02:13:44;;;;;;;21.27;14.30;;;9.60;99.90;;;;;;5056019;28;20449;-86
2021/04/22 02:16:11;;;;;;;20.13;14.10;;;9.60;99.90;;;;;;5055824;28;20461;-86
2021/04/22 02:18:37;;;;;;;17.30;12.70;;;9.50;99.90;;;;;;5055766;28;20481;-86
2021/04/22 02:21:03;;;;;;;18.73;13.60;;;9.50;99.90;;;;;;5055991;28;20456;-86
2021/04/22 02:23:31;;;;;;;20.70;13.70;;;9.50;99.90;;;;;;5055944;28;20542;-86
2021/04/22 02:25:57;;;;;;;19.30;13.70;;;9.50;99.90;;;;;;5055473;28;20469;-86
2021/04/22 02:28:23;;;;;;;20.80;14.00;;;9.50;99.90;;;;;;5055477;28;20479;-86
2021/04/22 02:30:50;;;;;;;17.37;13.77;;;9.50;99.90;;;;;;5055825;28;20499;-85
2021/04/22 02:33:19;;;;;;;18.87;12.90;;;9.50;99.90;;;;;;5055753;28;20445;-86
2021/04/22 02:35:47;;;;;;;22.10;14.80;;;9.40;99.90;;;;;;5055642;28;20489;-86
2021/04/22 02:38:15;;;;;;;19.87;13.90;;;9.40;99.90;;;;;;5055588;28;20489;-85
2021/04/22 02:40:43;;;;;;;18.27;13.20;;;9.30;99.90;;;;;;5055615;28;20508;-85
2021/04/22 02:43:12;;;;;;;20.03;14.17;;;9.30;99.90;;;;;;5055702;28;20959;-85
2021/04/22 02:45:41;;;;;;;23.07;15.60;;;9.30;99.90;;;;;;5055326;28;20473;-86
2021/04/22 02:48:10;;;;;;;21.30;15.17;;;9.30;99.90;;;;;;5055178;28;20453;-83
2021/04/22 02:50:38;;;;;;;21.37;15.30;;;9.30;99.90;;;;;;5055077;28;20450;-83
2021/04/22 02:53:05;;;;;;;23.43;16.47;;;9.30;99.90;;;;;;5055278;28;20450;-83
2021/04/22 02:55:32;;;;;;;23.17;15.00;;;9.30;99.90;;;;;;5055226;28;20454;-83
2021/04/22 02:57:58;;;;;;;22.23;15.57;;;9.40;99.90;;;;;;5055464;28;20474;-83
2021/04/22 03:00:25;;;;;;;23.03;15.97;;;9.40;99.90;;;;;;5054889;28;20454;-82
2021/04/22 03:02:51;;;;;;;26.30;17.40;;;9.40;99.90;;;;;;5054862;28;20434;-83
2021/04/22 03:05:19;;;;;;;25.53;17.20;;;9.40;99.90;;;;;;5054978;28;20836;-83
2021/04/22 03:07:46;;;;;;;27.40;18.00;;;9.30;99.90;;;;;;5054983;28;20441;-83
2021/04/22 03:10:15;;;;;;;31.20;19.10;;;9.30;99.90;;;;;;5054848;28;20822;-83
2021/04/22 03:12:42;;;;;;;31.60;19.70;;;9.20;99.90;;;;;;5054654;28;20492;-83
2021/04/22 03:15:09;;;;;;;30.03;19.30;;;9.20;99.90;;;;;;5055474;28;20469;-83
2021/04/22 03:17:36;;;;;;;31.67;19.30;;;9.10;99.90;;;;;;5054783;28;20481;-80
2021/04/22 03:20:03;;;;;;;31.07;18.57;;;9.10;99.90;;;;;;5054456;28;20847;-81
2021/04/22 03:22:32;;;;;;;31.90;19.70;;;9.10;99.90;;;;;;5054438;28;20454;-80
2021/04/22 03:24:58;;;;;;;28.00;19.13;;;9.00;99.90;;;;;;5054306;28;21014;-80
2021/04/22 03:27:25;;;;;;;32.60;20.10;;;9.00;99.90;;;;;;5054123;28;20480;-81
2021/04/22 03:29:51;;;;;;;33.90;21.43;;;9.00;99.90;;;;;;5053936;28;20882;-81
2021/04/22 03:32:17;;;;;;;31.67;20.60;;;9.00;99.90;;;;;;5054254;28;20960;-80
2021/04/22 03:34:43;;;;;;;40.10;21.93;;;8.90;99.90;;;;;;5054401;28;20442;-80
2021/04/22 03:37:10;;;;;;;38.73;23.17;;;8.90;99.90;;;;;;5054323;28;20453;-80
2021/04/22 03:39:37;;;;;;;33.30;21.57;;;8.90;99.90;;;;;;5054375;28;20457;-80
2021/04/22 03:42:03;;;;;;;35.73;22.97;;;8.80;99.90;;;;;;5054105;28;20442;-80
2021/04/22 03:44:29;;;;;;;32.20;20.77;;;8.80;99.90;;;;;;5054290;28;20454;-80
2021/04/22 03:46:56;;;;;;;36.00;22.70;;;8.80;99.90;;;;;;5054162;28;20473;-80
2021/04/22 03:49:22;;;;;;;35.17;20.13;;;8.70;99.90;;;;;;5053917;28;20937;-80
2021/04/22 03:51:48;;;;;;;37.47;21.87;;;8.70;99.90;;;;;;5054126;28;20442;-80
2021/04/22 03:54:15;;;;;;;33.20;22.40;;;8.70;99.90;;;;;;5053793;28;20465;-80
2021/04/22 03:56:43;;;;;;;33.77;21.50;;;8.60;99.90;;;;;;5053710;28;20478;-80
2021/04/22 03:59:09;;;;;;;37.57;22.73;;;8.60;99.90;;;;;;5053965;28;20481;-80
2021/04/22 04:01:36;;;;;;;38.57;22.73;;;8.50;99.90;;;;;;5054391;28;20453;-80
2021/04/22 04:04:02;;;;;;;38.17;23.57;;;8.50;99.90;;;;;;5053980;28;20496;-80
2021/04/22 04:06:29;;;;;;;40.83;23.30;;;8.50;99.90;;;;;;5053814;28;20476;-80
2021/04/22 04:08:55;;;;;;;37.57;23.20;;;8.60;99.90;;;;;;5053942;28;20446;-85
2021/04/22 04:11:21;;;;;;;38.43;22.93;;;8.60;99.90;;;;;;5053745;28;20495;-86
2021/04/22 04:13:48;;;;;;;42.87;23.57;;;8.60;99.90;;;;;;5053951;28;20457;-85
2021/04/22 04:16:14;;;;;;;33.33;22.67;;;8.70;99.90;;;;;;5053947;28;20829;-86
2021/04/22 04:18:41;;;;;;;35.77;22.43;;;8.60;99.90;;;;;;5053678;28;20841;-85
2021/04/22 04:21:07;;;;;;;40.30;23.17;;;8.70;99.90;;;;;;5053455;28;20941;-86
2021/04/22 04:23:33;;;;;;;37.23;21.50;;;8.70;99.90;;;;;;5053423;28;20446;-86
2021/04/22 04:25:59;;;;;;;33.37;22.37;;;8.60;99.90;;;;;;5053648;28;20469;-81
2021/04/22 04:28:26;;;;;;;35.40;21.50;;;8.70;99.90;;;;;;5053102;28;20508;-85
2021/04/22 04:30:53;;;;;;;38.23;22.10;;;8.70;99.90;;;;;;5053652;28;20445;-86
2021/04/22 04:33:20;;;;;;;36.17;22.03;;;8.60;99.90;;;;;;5054132;28;20457;-83
2021/04/22 04:35:46;;;;;;;36.30;22.80;;;8.60;99.90;;;;;;5053283;28;20453;-84
2021/04/22 04:38:12;;;;;;;38.97;22.50;;;8.60;99.90;;;;;;5053090;28;20482;-83
2021/04/22 04:40:38;;;;;;;39.20;22.93;;;8.60;99.90;;;;;;5052807;28;20438;-83
2021/04/22 04:43:04;;;;;;;41.77;23.50;;;8.50;99.90;;;;;;5052534;28;20430;-83
2021/04/22 04:45:31;;;;;;;36.37;22.50;;;8.50;99.90;;;;;;5053712;28;20474;-83
2021/04/22 04:47:58;;;;;;;35.73;22.50;;;8.40;99.90;;;;;;5053310;28;20559;-80
2021/04/22 04:50:24;;;;;;;42.73;24.87;;;8.40;99.90;;;;;;5053265;28;20503;-80
2021/04/22 04:52:51;;;;;;;42.50;26.10;;;8.50;99.90;;;;;;5053215;28;20446;-80
2021/04/22 04:55:17;;;;;;;40.03;25.77;;;8.40;99.90;;;;;;5053105;28;20461;-80
2021/04/22 04:57:43;;;;;;;35.67;21.70;;;8.40;99.90;;;;;;5052892;28;20984;-80
2021/04/22 05:00:12;;;;;;;36.97;23.33;;;8.40;99.90;;;;;;5052865;28;20456;-80
2021/04/22 05:02:38;;;;;;;37.67;23.87;;;8.40;99.90;;;;;;5052910;28;20488;-80
2021/04/22 05:05:07;;;;;;;43.20;23.73;;;8.50;99.90;;;;;;5052900;28;20463;-80
2021/04/22 05:07:33;;;;;;;32.80;22.63;;;8.60;99.90;;;;;;5052732;28;20453;-80
2021/04/22 05:09:59;;;;;;;38.33;23.07;;;8.60;99.90;;;;;;5053109;28;20434;-80
2021/04/22 05:12:26;;;;;;;38.57;22.87;;;8.70;99.90;;;;;;5052756;28;20953;-80
2021/04/22 05:14:52;;;;;;;36.80;22.60;;;8.70;99.90;;;;;;5052666;28;20968;-80
2021/04/22 05:17:18;;;;;;;36.87;22.37;;;8.80;99.90;;;;;;5052691;28;20434;-80
2021/04/22 05:19:45;;;;;;;39.77;23.40;;;8.80;99.90;;;;;;5052683;28;20445;-80
2021/04/22 05:22:12;;;;;;;34.40;22.17;;;8.80;99.90;;;;;;5052856;28;20458;-82
2021/04/22 05:24:39;;;;;;;34.83;22.63;;;8.80;99.90;;;;;;5052556;28;20453;-83
2021/04/22 05:27:06;;;;;;;32.20;20.87;;;8.80;99.90;;;;;;5052488;28;20465;-83
2021/04/22 05:29:34;;;;;;;34.97;22.50;;;8.80;99.90;;;;;;5052555;28;20473;-83
2021/04/22 05:32:00;;;;;;;37.77;21.97;;;8.90;99.90;;;;;;5052609;28;20484;-83
2021/04/22 05:34:26;;;;;;;38.63;23.10;;;8.80;99.90;;;;;;5052832;28;20508;-83
2021/04/22 05:36:53;;;;;;;37.20;21.53;;;8.90;99.90;;;;;;5052815;28;20477;-83
2021/04/22 05:39:22;;;;;;;37.70;21.30;;;9.00;99.90;;;;;;5052734;28;20836;-83
2021/04/22 05:41:49;;;;;;;35.00;22.57;;;9.10;99.90;;;;;;5052689;28;20468;-83
2021/04/22 05:44:15;;;;;;;33.57;21.63;;;9.10;99.90;;;;;;5052514;28;20947;-80
2021/04/22 05:46:42;;;;;;;34.63;22.27;;;9.30;99.90;;;;;;5052695;28;20470;-80
2021/04/22 05:49:09;;;;;;;37.70;20.17;;;9.30;99.90;;;;;;5052392;28;20450;-80
2021/04/22 05:51:37;;;;;;;35.83;22.00;;;9.30;99.90;;;;;;5052561;28;20801;-86
2021/04/22 05:54:04;;;;;;;32.97;21.87;;;9.30;99.90;;;;;;5055577;28;20515;-86
2021/04/22 05:56:32;;;;;;;38.20;21.53;;;9.40;99.90;;;;;;5056115;28;20472;-86
2021/04/22 05:58:58;;;;;;;31.70;20.17;;;9.60;99.90;;;;;;5056428;28;20489;-86
2021/04/22 06:01:24;;;;;;;31.33;20.30;;;9.80;99.90;;;;;;5056269;28;20944;-86
2021/04/22 06:03:50;;;;;;;28.80;19.23;;;10.00;99.90;;;;;;5056023;28;20957;-86
2021/04/22 06:06:17;;;;;;;26.50;18.33;;;10.30;99.90;;;;;;5056138;28;20972;-86
2021/04/22 06:08:43;;;;;;;29.67;19.67;;;10.50;99.90;;;;;;5055996;28;20449;-86
2021/04/22 06:11:09;;;;;;;29.57;19.80;;;10.60;99.90;;;;;;5056146;28;20464;-86
2021/04/22 06:13:36;;;;;;;28.50;19.90;;;10.80;99.90;;;;;;5056023;28;20458;-86
2021/04/22 06:16:03;;;;;;;30.40;20.00;;;10.90;99.90;;;;;;5055985;28;20450;-86
2021/04/22 06:18:29;;;;;;;25.00;18.97;;;11.00;99.90;;;;;;5056047;28;20875;-86
2021/04/22 06:20:56;;;;;;;27.43;18.63;;;11.00;99.90;;;;;;5056163;28;20486;-86
2021/04/22 06:23:22;;;;;;;31.83;18.60;;;11.00;99.90;;;;;;5055759;28;20457;-87
2021/04/22 06:25:48;;;;;;;32.23;19.90;;;11.00;99.90;;;;;;5055915;28;20480;-86
2021/04/22 06:28:15;;;;;;;31.13;18.87;;;10.90;99.90;;;;;;5055697;28;20501;-86
2021/04/22 06:30:42;;;;;;;30.93;19.40;;;10.80;99.90;;;;;;5055912;28;20544;-80
2021/04/22 06:33:08;;;;;;;27.90;18.17;;;10.70;99.90;;;;;;5055681;28;20430;-80
2021/04/22 06:35:35;;;;;;;26.83;19.70;;;10.70;99.90;;;;;;5055474;28;20976;-83
2021/04/22 06:38:01;;;;;;;34.53;19.80;;;10.70;99.90;;;;;;5055594;28;20536;-86
2021/04/22 06:40:27;;;;;;;35.20;20.13;;;10.70;99.90;;;;;;5056053;28;20456;-80
2021/04/22 06:42:54;;;;;;;26.03;17.60;;;10.70;99.90;;;;;;5056235;28;20449;-80
2021/04/22 06:45:22;;;;;;;26.40;17.40;;;10.60;99.90;;;;;;5055389;28;20518;-81
2021/04/22 06:47:49;;;;;;;25.93;17.13;;;10.50;99.90;;;;;;5055368;28;20426;-80
2021/04/22 06:50:19;;;;;;;25.33;17.77;;;10.40;99.90;;;;;;5055318;28;20434;-80
2021/04/22 06:52:46;;;;;;;26.13;18.20;;;10.50;99.90;;;;;;5055004;28;20446;-80
2021/04/22 06:55:15;;;;;;;29.50;19.60;;;10.60;99.90;;;;;;5054870;28;20960;-80
2021/04/22 06:57:41;;;;;;;25.07;17.83;;;10.70;99.90;;;;;;5055204;28;20450;-80
2021/04/22 07:00:10;;;;;;;27.10;17.03;;;10.70;99.90;;;;;;5055195;28;20445;-80
2021/04/22 07:02:37;;;;;;;26.20;18.10;;;10.70;99.90;;;;;;5055217;28;20418;-80
2021/04/22 07:05:05;;;;;;;23.73;17.33;;;10.60;99.90;;;;;;5054037;28;20470;-80
2021/04/22 07:07:31;;;;;;;26.80;18.30;;;10.60;99.90;;;;;;5055443;28;20468;-80
2021/04/22 07:09:57;;;;;;;30.87;16.70;;;10.60;99.90;;;;;;5055035;28;20434;-80
2021/04/22 07:12:24;;;;;;;24.50;17.07;;;10.60;99.90;;;;;;5054913;28;20436;-80
2021/04/22 07:14:50;;;;;;;32.37;18.17;;;10.50;99.90;;;;;;5054820;28;20483;-80
2021/04/22 07:17:16;;;;;;;27.00;16.20;;;10.50;99.90;;;;;;5054861;28;20768;-80
2021/04/22 07:19:42;;;;;;;29.03;17.60;;;10.50;99.90;;;;;;5054381;28;20996;-80
2021/04/22 07:22:09;;;;;;;25.90;16.90;;;10.50;99.90;;;;;;5054803;28;20438;-80
2021/04/22 07:24:38;;;;;;;33.73;18.83;;;10.60;99.90;;;;;;5054388;28;20933;-81
2021/04/22 07:27:04;;;;;;;28.50;16.23;;;10.70;99.90;;;;;;5054837;28;20508;-80
2021/04/22 07:29:31;;;;;;;23.93;16.17;;;10.90;99.90;;;;;;5054347;28;20449;-80
2021/04/22 07:31:57;;;;;;;26.63;16.20;;;10.80;99.90;;;;;;5054540;28;20521;-80
2021/04/22 07:34:23;;;;;;;22.70;15.77;;;10.90;99.90;;;;;;5054465;28;20418;-80
2021/04/22 07:36:50;;;;;;;24.83;16.87;;;11.10;99.90;;;;;;5054369;28;20826;-80
2021/04/22 07:39:17;;;;;;;24.30;17.40;;;11.10;99.90;;;;;;5054429;28;20470;-80
2021/04/22 07:41:43;;;;;;;24.90;16.27;;;11.20;99.90;;;;;;5054431;28;20434;-80
2021/04/22 07:44:09;;;;;;;26.70;16.10;;;11.20;99.90;;;;;;5054381;28;20821;-80
2021/04/22 07:46:35;;;;;;;23.60;15.60;;;11.30;99.90;;;;;;5054640;28;20488;-80
2021/04/22 07:49:05;;;;;;;25.27;16.03;;;11.30;99.90;;;;;;5054278;28;20435;-81
2021/04/22 07:51:31;;;;;;;24.53;15.60;;;11.30;99.90;;;;;;5054203;28;20445;-80
2021/04/22 07:54:00;;;;;;;20.10;15.60;;;11.20;99.90;;;;;;5054374;28;20441;-80
2021/04/22 07:56:28;;;;;;;18.57;14.10;;;11.20;99.90;;;;;;5054948;28;20473;-80
2021/04/22 07:58:54;;;;;;;22.93;15.47;;;11.30;99.90;;;;;;5048871;28;20471;-80
2021/04/22 08:01:20;;;;;;;22.50;15.30;;;11.40;99.90;;;;;;5034665;28;20447;-79
2021/04/22 08:03:46;;;;;;;21.03;16.07;;;11.50;99.90;;;;;;5034120;28;20461;-80
2021/04/22 08:06:14;;;;;;;20.77;14.60;;;11.60;99.90;;;;;;5034025;28;20470;-80
2021/04/22 08:08:40;;;;;;;20.70;15.03;;;11.50;99.90;;;;;;5033949;28;20431;-80
2021/04/22 08:11:06;;;;;;;22.83;15.27;;;11.30;99.90;;;;;;5033760;28;20422;-80
2021/04/22 08:13:33;;;;;;;20.67;15.00;;;11.40;99.90;;;;;;5034094;28;20836;-80
2021/04/22 08:16:00;;;;;;;20.93;13.83;;;11.40;99.90;;;;;;5033371;28;20454;-80
2021/04/22 08:18:28;;;;;;;19.90;14.30;;;11.40;99.90;;;;;;5033748;28;20462;-82
2021/04/22 08:20:57;;;;;;;23.20;15.17;;;11.30;99.90;;;;;;5033833;28;20435;-82
2021/04/22 08:23:24;;;;;;;17.50;14.60;;;11.40;99.90;;;;;;5033425;28;20450;-82
2021/04/22 08:25:54;;;;;;;20.57;13.93;;;11.40;99.90;;;;;;5034043;28;20524;-83
2021/04/22 08:28:22;;;;;;;18.90;13.70;;;11.40;99.90;;;;;;5033239;28;21024;-83
2021/04/22 08:30:52;;;;;;;17.83;13.20;;;11.50;99.90;;;;;;5033332;28;20769;-83
2021/04/22 08:33:21;;;;;;;21.07;13.30;;;11.50;99.90;;;;;;5033367;28;20836;-83
2021/04/22 08:35:48;;;;;;;18.57;12.83;;;11.70;99.90;;;;;;5032563;28;20482;-82
2021/04/22 08:38:15;;;;;;;17.50;11.83;;;12.00;99.90;;;;;;5033484;28;20475;-81
2021/04/22 08:40:43;;;;;;;20.73;12.03;;;12.40;99.90;;;;;;5033470;28;20435;-81
2021/04/22 08:43:10;;;;;;;15.63;11.87;;;12.70;99.90;;;;;;5033489;28;20434;-81
2021/04/22 08:45:37;;;;;;;23.57;12.27;;;13.00;99.90;;;;;;5033437;28;20478;-81
2021/04/22 08:48:06;;;;;;;15.60;12.37;;;13.00;99.60;;;;;;5033432;28;20461;-81
2021/04/22 08:50:34;;;;;;;18.10;11.87;;;13.20;99.40;;;;;;5033373;28;20435;-81
2021/04/22 08:53:03;;;;;;;14.07;11.03;;;13.30;98.30;;;;;;5033305;28;20435;-81
2021/04/22 08:55:32;;;;;;;16.20;11.97;;;13.40;98.00;;;;;;5033394;28;20825;-81
2021/04/22 08:57:59;;;;;;;19.80;11.17;;;13.30;96.40;;;;;;5033049;28;20485;-81
2021/04/22 09:00:30;;;;;;;17.13;12.13;;;13.20;97.30;;;;;;5033339;28;20438;-81
2021/04/22 09:02:57;;;;;;;17.63;11.47;;;13.10;97.60;;;;;;5032994;28;20947;-81
2021/04/22 09:05:24;;;;;;;19.03;11.70;;;13.10;97.40;;;;;;5033234;28;20527;-82
2021/04/22 09:07:51;;;;;;;14.70;10.60;;;13.10;98.10;;;;;;5032956;28;20914;-82
2021/04/22 09:10:20;;;;;;;15.50;11.93;;;13.20;97.00;;;;;;5033267;28;20435;-81
2021/04/22 09:12:55;;;;;;;16.70;12.30;;;13.30;96.60;;;;;;5033176;28;20441;-81
2021/04/22 09:15:22;;;;;;;16.47;13.30;;;13.30;96.70;;;;;;5033926;28;20466;-81
2021/04/22 09:17:56;;;;;;;13.57;10.80;;;13.20;97.20;;;;;;5033062;28;20484;-81
2021/04/22 09:20:29;;;;;;;19.90;12.10;;;13.00;96.90;;;;;;5033144;28;20461;-81
2021/04/22 09:22:55;;;;;;;16.80;12.27;;;13.30;97.00;;;;;;5032889;28;20420;-81
2021/04/22 09:25:25;;;;;;;15.30;11.30;;;13.60;95.90;;;;;;5033002;28;20471;-81
2021/04/22 09:27:56;;;;;;;13.50;10.77;;;13.70;95.40;;;;;;5033694;28;20548;-81
2021/04/22 09:30:35;;;;;;;12.23;10.20;;;13.90;94.60;;;;;;5036969;28;20438;-81
2021/04/22 09:33:03;;;;;;;14.80;11.03;;;14.20;93.40;;;;;;5036600;28;20981;-81
2021/04/22 09:35:31;;;;;;;24.40;13.17;;;14.70;92.20;;;;;;5036809;28;20469;-81
2021/04/22 09:37:58;;;;;;;11.87;10.30;;;15.40;91.70;;;;;;5037011;28;20473;-82
2021/04/22 09:40:27;;;;;;;13.07;10.70;;;15.80;88.30;;;;;;5036814;28;20501;-82
2021/04/22 09:42:55;;;;;;;12.87;9.77;;;16.00;88.00;;;;;;5036801;28;20434;-82
2021/04/22 09:45:23;;;;;;;15.63;11.20;;;16.60;86.90;;;;;;5036682;28;20475;-82
2021/04/22 09:47:50;;;;;;;15.30;11.40;;;17.40;81.80;;;;;;5036371;28;20437;-82
2021/04/22 09:50:21;;;;;;;11.27;9.80;;;17.80;77.60;;;;;;5036655;28;20431;-82
2021/04/22 09:52:51;;;;;;;11.87;10.07;;;18.40;74.60;;;;;;5037084;28;20988;-83
2021/04/22 09:55:20;;;;;;;12.47;9.67;;;18.90;72.00;;;;;;5250428;22;20491;-83
2021/04/22 10:08:14;;;;;;;12.20;10.13;;;19.80;62.60;;;;;;5189206;22;20509;-87
2021/04/22 10:10:43;;;;;;;12.63;10.50;;;19.80;64.00;;;;;;5056726;28;20844;-84
2021/04/22 10:13:11;;;;;;;11.63;10.27;;;19.80;62.40;;;;;;5497280;22;20853;-82
2021/04/22 10:18:13;;;;;;;11.70;9.40;;;19.80;58.80;;;;;;5449402;22;20484;-80
2021/04/22 10:20:40;;;;;;;12.53;10.47;;;19.70;59.40;;;;;;5562210;22;20427;-85
2021/04/22 10:28:18;;;;;;;11.10;10.00;;;20.00;58.70;;;;;;5713795;22;20508;-81
2021/04/22 10:30:47;;;;;;;12.80;9.97;;;20.20;58.10;;;;;;5055493;28;20962;-80
2021/04/22 10:33:14;;;;;;;14.10;10.57;;;20.50;56.70;;;;;;5055767;28;20444;-81
2021/04/22 10:35:43;;;;;;;14.50;9.47;;;21.10;55.60;;;;;;5055514;28;20465;-81
2021/04/22 10:38:10;;;;;;;10.30;9.20;;;21.50;54.00;;;;;;5055448;28;20515;-81
2021/04/22 10:40:39;;;;;;;12.97;9.30;;;22.60;53.60;;;;;;5055450;28;20481;-80
2021/04/22 10:43:08;;;;;;;10.77;9.07;;;23.30;51.10;;;;;;5055556;28;20558;-80
2021/04/22 10:45:37;;;;;;;11.38;9.10;;;23.80;49.10;;;;;;5055179;28;20706;-82
2021/04/22 10:48:04;;;;;;;15.57;10.20;;;24.40;49.00;;;;;;5055506;28;20278;-82
2021/04/22 10:50:34;;;;;;;9.75;8.55;;;25.10;46.30;;;;;;5055461;28;20197;-80
2021/04/22 10:53:03;;;;;;;14.02;11.48;;;25.10;45.80;;;;;;5054995;28;20708;-80
2021/04/22 10:55:32;;;;;;;11.20;10.10;;;25.50;44.70;;;;;;5055246;28;20230;-77
2021/04/22 10:58:11;;;;;;;9.98;8.95;;;25.20;44.70;;;;;;5055267;28;20183;-78
2021/04/22 11:00:44;;;;;;;11.23;10.02;;;25.50;45.10;;;;;;5055221;28;20179;-82
2021/04/22 11:03:23;;;;;;;11.77;10.35;;;25.10;45.30;;;;;;5054984;28;20186;-81
2021/04/22 11:05:54;;;;;;;11.70;8.60;;;23.90;46.10;;;;;;5055092;28;20222;-81
2021/04/22 11:08:30;;;;;;;10.80;9.70;;;23.10;47.00;;;;;;5055078;28;20183;-81
2021/04/22 11:10:57;;;;;;;12.75;9.65;;;22.60;45.80;;;;;;5055001;28;20527;-81
2021/04/22 11:13:28;;;;;;;10.75;9.63;;;21.60;47.50;;;;;;5054996;28;20187;-80
2021/04/22 11:16:05;;;;;;;10.75;9.02;;;21.00;49.60;;;;;;5054886;28;20230;-80
2021/04/22 11:18:39;;;;;;;13.60;10.23;;;20.60;51.00;;;;;;5054845;28;20210;-80
2021/04/22 11:21:07;;;;;;;14.30;10.07;;;20.10;51.40;;;;;;5054520;28;20452;-80
2021/04/22 11:23:41;;;;;;;13.30;9.63;;;19.70;51.60;;;;;;5054649;28;20904;-80
2021/04/22 11:26:28;;;;;;;12.20;9.70;;;19.50;52.50;;;;;;5054932;28;20482;-80
2021/04/22 11:28:57;;;;;;;14.50;9.80;;;19.20;51.20;;;;;;5054281;28;20480;-80
2021/04/22 11:31:26;;;;;;;11.83;8.43;;;18.80;53.20;;;;;;5054616;28;20430;-80
2021/04/22 11:34:04;;;;;;;10.90;8.07;;;18.70;52.30;;;;;;5054663;28;20419;-78
2021/04/22 11:36:31;;;;;;;9.13;8.13;;;18.60;52.10;;;;;;5054262;28;20458;-78
2021/04/22 11:38:59;;;;;;;11.13;8.73;;;18.50;51.70;;;;;;5054135;28;20523;-78
2021/04/22 11:41:27;;;;;;;13.73;7.97;;;18.50;50.20;;;;;;5054466;28;20431;-78
2021/04/22 11:44:09;;;;;;;10.77;7.17;;;18.30;49.10;;;;;;5054393;28;20438;-78
2021/04/22 11:46:44;;;;;;;7.73;6.70;;;17.90;51.00;;;;;;5054288;28;20458;-78
2021/04/22 11:49:23;;;;;;;7.20;6.17;;;17.80;52.40;;;;;;5054309;28;20809;-80
2021/04/22 11:51:50;;;;;;;10.03;6.77;;;17.70;51.50;;;;;;5053437;28;20780;-78
2021/04/22 11:54:18;;;;;;;8.60;7.63;;;17.60;52.40;;;;;;5054197;28;20437;-78
2021/04/22 11:56:52;;;;;;;9.10;5.10;;;17.50;51.20;;;;;;5053918;28;20446;-78
2021/04/22 11:59:21;;;;;;;7.37;5.47;;;17.30;51.10;;;;;;5054062;28;20461;-78
2021/04/22 12:01:53;;;;;;;7.03;5.70;;;17.20;51.50;;;;;;5054741;28;20947;-78
2021/04/22 12:04:20;;;;;;;7.77;6.40;;;17.20;50.40;;;;;;5054035;28;20465;-79
2021/04/22 12:06:51;;;;;;;7.63;5.97;;;17.00;51.40;;;;;;5054620;28;20478;-78
2021/04/22 12:09:28;;;;;;;7.53;6.00;;;16.90;52.00;;;;;;5053957;28;20430;-84
2021/04/22 12:11:54;;;;;;;7.70;5.10;;;16.70;51.20;;;;;;5053580;28;20433;-79
2021/04/22 12:14:29;;;;;;;7.90;5.60;;;16.60;51.30;;;;;;5053910;28;20411;-84
2021/04/22 12:16:56;;;;;;;8.67;4.70;;;16.70;48.70;;;;;;5053697;28;20473;-78
2021/04/22 12:19:26;;;;;;;4.93;3.97;;;16.50;49.60;;;;;;5053338;28;20841;-78
2021/04/22 12:21:54;;;;;;;8.90;5.00;;;16.50;50.30;;;;;;5053710;28;20525;-78
2021/04/22 12:24:23;;;;;;;5.73;4.90;;;16.30;49.90;;;;;;5053687;28;20445;-78
2021/04/22 12:26:50;;;;;;;5.87;4.63;;;16.20;51.50;;;;;;5053535;28;20576;-78
2021/04/22 12:29:17;;;;;;;4.43;3.70;;;16.20;51.80;;;;;;5053688;28;20484;-79
2021/04/22 12:31:45;;;;;;;6.07;4.00;;;16.20;48.80;;;;;;5053546;28;20437;-78
2021/04/22 12:34:14;;;;;;;5.10;3.73;;;16.20;48.70;;;;;;5053461;28;20465;-83
2021/04/22 12:36:56;;;;;;;4.40;3.63;;;16.00;47.50;;;;;;5054083;28;20473;-83
2021/04/22 12:39:25;;;;;;;5.80;3.63;;;15.80;49.30;;;;;;5053088;28;20843;-84
2021/04/22 12:42:06;;;;;;;3.67;2.67;;;15.80;49.50;;;;;;5053576;28;20454;-84
2021/04/22 12:44:33;;;;;;;4.00;2.90;;;15.70;48.10;;;;;;5053992;28;20901;-84
2021/04/22 12:47:02;;;;;;;3.40;3.10;;;15.50;48.20;;;;;;5053506;28;20519;-84
2021/04/22 12:49:30;;;;;;;3.07;2.33;;;15.50;47.80;;;;;;5053315;28;20434;-81
2021/04/22 12:51:56;;;;;;;3.30;2.67;;;15.40;48.30;;;;;;5053580;28;20433;-81
2021/04/22 12:54:24;;;;;;;2.60;2.23;;;15.30;46.20;;;;;;5053030;28;20426;-81
2021/04/22 12:56:51;;;;;;;5.30;2.90;;;15.10;47.00;;;;;;5052924;28;20462;-81